Norwegian Epic — C6XP7 — position and weather

sailwx.info

Track history (hours):
 
Tides and Currents Weather Stations Pressure Air Temp Water Temp Dewpoint Dewpoint Depression Visibility Wind Speed Wind Dir Waves Ship Positions

Norwegian Epic

Last reported at 2017-Jun-22 16:27 UTC. Time now 2017-Jun-22 16:38 UTC.
Position N 43°33' E 010°18'.

Length 329 m; draft 8.8 m.

Type: Passenger vessel. MMSI: 311018500.

Date/timePositionNaut miles runAvg speedWind from/ knotsBaromVisibWave heightAir tempDewpointWater temp
2017-Jun-22 16:27N 43°33' E 010°18'0 0.0
2017-Jun-22 16:00N 43°33' E 010°18'0 0.0
2017-Jun-22 15:30N 43°33' E 010°18'0 0.0
2017-Jun-22 15:00N 43°33' E 010°18'0 0.0
2017-Jun-22 13:58N 43°33' E 010°18'0 0.0
2017-Jun-22 13:29N 43°33' E 010°18'0 0.0
2017-Jun-22 12:59N 43°33' E 010°18'0 0.0
2017-Jun-22 12:29N 43°33' E 010°18'0 0.0
2017-Jun-22 11:59N 43°33' E 010°18'0 0.0
2017-Jun-22 11:30N 43°33' E 010°18'0 0.0
2017-Jun-22 11:00N 43°33' E 010°18'0 0.0
2017-Jun-22 10:30N 43°33' E 010°18'0 0.0
2017-Jun-22 09:55N 43°33' E 010°18'0 0.0
2017-Jun-22 09:28N 43°33' E 010°18'0 0.0
2017-Jun-22 08:53N 43°33' E 010°18'0 0.0
2017-Jun-22 08:29N 43°33' E 010°18'0 0.0
2017-Jun-22 07:56N 43°33' E 010°18'0 0.0
2017-Jun-22 07:29N 43°33' E 010°18'0 0.0
2017-Jun-22 07:00N 43°33' E 010°18'0 0.0
2017-Jun-22 06:30N 43°33' E 010°18'0 0.0
2017-Jun-22 06:00N 43°33' E 010°18'0 0.0
2017-Jun-22 05:28N 43°33' E 010°18'0 0.0
2017-Jun-22 04:58N 43°33' E 010°18'0 0.7
2017-Jun-22 04:31N 43°33' E 010°18'4 7.8
2017-Jun-22 04:01N 43°30' E 010°14'611.3
2017-Jun-22 03:30N 43°25' E 010°11'612.2
2017-Jun-22 03:01N 43°19' E 010°09'612.9
2017-Jun-22 02:31N 43°13' E 010°07'613.0
2017-Jun-22 02:01N 43°06' E 010°05'713.2
2017-Jun-22 01:31N 42°60' E 010°02'816.0
2017-Jun-22 01:00N 42°52' E 009°59'917.5
2017-Jun-22 00:30N 42°44' E 009°56'917.1
2017-Jun-22 00:00N 42°36' E 009°53'917.3
2017-Jun-21 23:30N 42°27' E 009°55'917.3
2017-Jun-21 23:00N 42°18' E 009°56'917.1
2017-Jun-21 22:30N 42°14' E 010°06'1517.4
2017-Jun-21 21:40N 42°08' E 010°24'317.2
2017-Jun-21 21:30N 42°07' E 010°28'917.1
2017-Jun-21 21:00N 42°05' E 010°39'816.9
2017-Jun-21 20:31N 42°02' E 010°49'916.7
2017-Jun-21 20:00N 41°59' E 011°00'816.6
2017-Jun-21 19:30N 41°58' E 011°11'917.1
2017-Jun-21 19:00N 42°01' E 011°22'816.9
2017-Jun-21 18:30N 42°04' E 011°33'80 4.0
2017-Jun-20 22:17N 40°58' E 012°34'1519.5
2017-Jun-20 21:32N 40°49' E 012°50'119.7
2017-Jun-20 21:29N 40°48' E 012°51'919.2
2017-Jun-20 21:00N 40°45' E 013°02'918.9
2017-Jun-20 20:30N 40°43' E 013°14'918.9
2017-Jun-20 20:00N 40°41' E 013°26'1018.8
2017-Jun-20 19:30N 40°39' E 013°39'917.4
2017-Jun-20 19:01N 40°39' E 013°50'816.6
2017-Jun-20 18:31N 40°39' E 014°01'816.0
2017-Jun-20 18:00N 40°43' E 014°10'713.8
2017-Jun-20 17:30N 40°48' E 014°16'3 2.6
2017-Jun-20 16:31N 40°50' E 014°16'0 0.0
2017-Jun-20 16:22N 40°50' E 014°16'0 0.0
2017-Jun-20 15:59N 40°50' E 014°16'0 0.0
2017-Jun-20 15:29N 40°50' E 014°16'0 0.0
2017-Jun-20 14:59N 40°50' E 014°16'0 0.0
2017-Jun-20 14:30N 40°50' E 014°16'0 0.0
2017-Jun-20 13:30N 40°50' E 014°16'0 0.0
2017-Jun-20 12:58N 40°50' E 014°16'0 0.0
2017-Jun-20 10:18N 40°50' E 014°16'0 0.0
2017-Jun-20 10:00N 40°50' E 014°16'0 0.0
2017-Jun-20 09:30N 40°50' E 014°16'0 0.0
2017-Jun-20 09:00N 40°50' E 014°16'0 0.0
2017-Jun-20 08:28N 40°50' E 014°16'0 0.0
2017-Jun-20 06:14N 40°50' E 014°16'0 0.0
2017-Jun-20 05:59N 40°50' E 014°16'0 0.0
2017-Jun-20 05:15N 40°50' E 014°16'0 0.0
2017-Jun-20 05:00N 40°50' E 014°16'9 5.3
2017-Jun-20 03:19N 40°43' E 014°10'412.5
2017-Jun-20 03:00N 40°40' E 014°06'2512.0
2017-Jun-20 00:55N 40°28' E 013°37'616.0
2017-Jun-20 00:30N 40°30' E 013°28'2716.2
2017-Jun-19 22:50N 40°38' E 012°54'3016.0
2017-Jun-19 20:59N 40°46' E 012°16'2616.1
2017-Jun-19 19:22N 40°53' E 011°43'616.2
2017-Jun-19 19:00N 40°55' E 011°36'816.1
2017-Jun-19 18:30N 40°57' E 011°26'7016.1
2017-Jun-19 14:09N 41°16' E 009°56'1015.6
2017-Jun-19 13:30N 41°19' E 009°43'816.0
2017-Jun-19 13:00N 41°21' E 009°33'9815.5
2017-Jun-19 06:40N 41°17' E 007°23'6517.0
2017-Jun-19 02:49N 41°17' E 005°55'2417.1
2017-Jun-19 01:24N 41°18' E 005°23'1216.9
2017-Jun-19 00:41N 41°17' E 005°07'317.0
2017-Jun-19 00:30N 41°16' E 005°03'3117.2
2017-Jun-18 22:42N 41°16' E 004°22'1617.1
2017-Jun-18 21:46N 41°16' E 004°01'416.9
2017-Jun-18 21:30N 41°16' E 003°55'817.0
2017-Jun-18 21:00N 41°16' E 003°43'917.1
2017-Jun-18 20:30N 41°16' E 003°32'916.9
2017-Jun-18 20:00N 41°16' E 003°21'816.5
2017-Jun-18 19:30N 41°16' E 003°10'816.2
2017-Jun-18 19:00N 41°16' E 002°59'816.2
2017-Jun-18 18:30N 41°16' E 002°48'816.3
2017-Jun-18 18:00N 41°16' E 002°37'816.3
2017-Jun-18 17:30N 41°15' E 002°26'816.3
2017-Jun-18 17:00N 41°15' E 002°16'612.6
2017-Jun-18 16:30N 41°19' E 002°10'2 1.4
2017-Jun-18 14:50N 41°22' E 002°11'0 0.0
2017-Jun-18 09:54N 41°22' E 002°11'0 0.0
2017-Jun-18 09:30N 41°22' E 002°11'0 0.0
2017-Jun-18 08:22N 41°22' E 002°11'0 0.0
2017-Jun-18 07:58N 41°22' E 002°11'0 0.0
2017-Jun-18 07:25N 41°22' E 002°11'0 0.0
2017-Jun-18 06:56N 41°22' E 002°11'0 0.0
2017-Jun-18 05:44N 41°22' E 002°11'0 0.0
2017-Jun-18 05:27N 41°22' E 002°11'0 0.0
2017-Jun-18 04:57N 41°22' E 002°11'0 0.0
2017-Jun-18 04:30N 41°22' E 002°11'0 0.0
2017-Jun-18 03:58N 41°22' E 002°11'0 0.0
2017-Jun-18 03:28N 41°22' E 002°11'0 0.0
2017-Jun-18 02:58N 41°22' E 002°11'1 1.3
2017-Jun-18 02:30N 41°21' E 002°10'3 7.0
2017-Jun-18 02:00N 41°18' E 002°11'816.0
2017-Jun-18 01:30N 41°10' E 002°11'917.1
2017-Jun-18 01:00N 41°01' E 002°11'917.3
2017-Jun-18 00:31N 40°53' E 002°12'917.4
2017-Jun-18 00:00N 40°44' E 002°12'917.7
2017-Jun-17 23:31N 40°35' E 002°12'917.5
2017-Jun-17 23:00N 40°26' E 002°12'917.7
2017-Jun-17 22:30N 40°17' E 002°11'816.8
2017-Jun-17 22:00N 40°09' E 002°12'917.1
2017-Jun-17 21:30N 40°00' E 002°12'917.4
2017-Jun-17 21:00N 39°52' E 002°12'917.2
2017-Jun-17 20:30N 39°43' E 002°12'817.1
2017-Jun-17 20:00N 39°35' E 002°13'816.8
2017-Jun-17 19:30N 39°29' E 002°21'816.7
2017-Jun-17 19:00N 39°24' E 002°30'815.7
2017-Jun-17 18:30N 39°30' E 002°37'4 7.6
2017-Jun-17 18:00N 39°33' E 002°38'0 0.0
2017-Jun-17 17:30N 39°33' E 002°38'0 0.0
2017-Jun-17 16:58N 39°33' E 002°38'0 0.0
2017-Jun-17 16:28N 39°33' E 002°38'0 0.0
2017-Jun-17 15:58N 39°33' E 002°38'0 0.0
2017-Jun-17 15:29N 39°33' E 002°38'0 0.0
2017-Jun-17 14:59N 39°33' E 002°38'0 0.0
2017-Jun-17 14:29N 39°33' E 002°38'0 0.0
2017-Jun-17 13:30N 39°33' E 002°38'0 0.0
2017-Jun-17 13:00N 39°33' E 002°38'0 0.0
2017-Jun-17 12:28N 39°33' E 002°38'0 0.0
2017-Jun-17 11:58N 39°33' E 002°38'0 0.0
2017-Jun-17 11:28N 39°33' E 002°38'0 0.0
2017-Jun-17 10:59N 39°33' E 002°38'0 0.1
2017-Jun-17 10:30N 39°33' E 002°38'2 3.5
2017-Jun-17 10:00N 39°32' E 002°38'612.6
2017-Jun-17 09:30N 39°26' E 002°34'815.4
2017-Jun-17 09:00N 39°26' E 002°24'917.7
2017-Jun-17 08:30N 39°32' E 002°15'917.5
2017-Jun-17 08:00N 39°40' E 002°18'918.0
2017-Jun-17 07:30N 39°47' E 002°26'917.3
2017-Jun-17 07:00N 39°53' E 002°34'917.2
2017-Jun-17 06:30N 39°59' E 002°42'917.2
2017-Jun-17 06:00N 40°05' E 002°50'917.3
2017-Jun-17 05:30N 40°12' E 002°58'917.6
2017-Jun-17 05:00N 40°18' E 003°06'1019.5
2017-Jun-17 04:30N 40°25' E 003°15'1020.0
2017-Jun-17 04:00N 40°32' E 003°24'1020.2
2017-Jun-17 03:29N 40°39' E 003°34'13221.4
2017-Jun-16 21:20N 42°16' E 005°34'721.4
2017-Jun-16 21:00N 42°19' E 005°42'1121.3
2017-Jun-16 20:30N 42°26' E 005°54'1121.7
2017-Jun-16 20:00N 42°33' E 006°04'1121.7
2017-Jun-16 19:30N 42°41' E 006°14'1122.1
2017-Jun-16 19:00N 42°49' E 006°25'1122.0
2017-Jun-16 18:30N 42°57' E 006°35'1122.0
2017-Jun-16 18:00N 43°05' E 006°46'1121.4
2017-Jun-16 17:30N 43°14' E 006°53'1121.8
2017-Jun-16 17:00N 43°24' E 006°58'815.7
2017-Jun-16 16:30N 43°32' E 007°00'0 0.5
2017-Jun-16 16:00N 43°32' E 007°00'0 0.0
2017-Jun-16 15:30N 43°32' E 007°00'0 0.0
2017-Jun-16 14:58N 43°32' E 007°00'0 0.0
2017-Jun-16 14:25N 43°32' E 007°00'0 0.0
2017-Jun-16 13:26N 43°32' E 007°00'0 0.0
2017-Jun-16 12:20N 43°32' E 007°01'0 0.0
2017-Jun-16 12:00N 43°32' E 007°00'0 0.0
2017-Jun-16 11:27N 43°32' E 007°00'0 0.0
2017-Jun-16 10:57N 43°32' E 007°00'0 0.0
2017-Jun-16 10:28N 43°32' E 007°00'0 0.1
2017-Jun-16 10:00N 43°32' E 007°00'0 0.1
2017-Jun-16 09:28N 43°32' E 007°00'0 0.0
2017-Jun-16 08:59N 43°32' E 007°00'0 0.0
2017-Jun-16 08:20N 43°32' E 007°00'0 0.2
2017-Jun-16 08:00N 43°32' E 007°00'0 0.3
2017-Jun-16 07:30N 43°32' E 007°00'0 0.1
2017-Jun-16 07:00N 43°32' E 007°01'0 0.2
2017-Jun-16 06:29N 43°32' E 007°01'0 0.4
2017-Jun-16 05:56N 43°32' E 007°01'0 0.2
2017-Jun-16 05:28N 43°32' E 007°01'0 0.1
2017-Jun-16 04:56N 43°32' E 007°00'1 2.6
2017-Jun-16 04:30N 43°31' E 007°00'4 8.9
2017-Jun-16 04:00N 43°28' E 007°05'612.9
2017-Jun-16 03:30N 43°28' E 007°14'613.0
2017-Jun-16 03:00N 43°28' E 007°23'713.1
2017-Jun-16 02:30N 43°28' E 007°32'713.1
2017-Jun-16 02:00N 43°29' E 007°41'713.1
2017-Jun-16 01:30N 43°29' E 007°50'815.5
2017-Jun-16 01:00N 43°29' E 008°01'816.1
2017-Jun-16 00:30N 43°29' E 008°12'816.1
2017-Jun-16 00:00N 43°29' E 008°23'815.8
2017-Jun-15 23:30N 43°29' E 008°34'816.2
2017-Jun-15 23:00N 43°30' E 008°45'713.3
2017-Jun-15 22:30N 43°30' E 008°54'612.7
2017-Jun-15 22:00N 43°31' E 009°03'612.5
2017-Jun-15 21:30N 43°31' E 009°11'612.3
2017-Jun-15 21:00N 43°32' E 009°20'612.4
2017-Jun-15 20:30N 43°31' E 009°28'612.5
2017-Jun-15 20:00N 43°31' E 009°37'612.3
2017-Jun-15 19:30N 43°31' E 009°45'612.2
2017-Jun-15 19:00N 43°32' E 009°54'611.8
2017-Jun-15 18:30N 43°31' E 010°02'611.6
2017-Jun-15 18:00N 43°31' E 010°10'611.0
2017-Jun-15 17:30N 43°32' E 010°17'1 1.9
2017-Jun-15 17:00N 43°33' E 010°18'0 0.0
2017-Jun-15 16:30N 43°33' E 010°18'0 0.0
2017-Jun-15 15:58N 43°33' E 010°18'0 0.0
2017-Jun-15 15:28N 43°33' E 010°18'0 0.0
2017-Jun-15 14:58N 43°33' E 010°18'0 0.0
2017-Jun-15 13:56N 43°33' E 010°18'0 0.0
2017-Jun-15 13:29N 43°33' E 010°18'0 0.0
2017-Jun-15 12:54N 43°33' E 010°18'0 0.0
2017-Jun-15 12:30N 43°33' E 010°18'0 0.0
2017-Jun-15 12:00N 43°33' E 010°18'0 0.0
2017-Jun-15 11:28N 43°33' E 010°18'0 0.0
2017-Jun-15 10:58N 43°33' E 010°18'0 0.0
2017-Jun-15 10:28N 43°33' E 010°18'0 0.0
2017-Jun-15 09:59N 43°33' E 010°18'0 0.0
2017-Jun-15 09:29N 43°33' E 010°18'0 0.0
2017-Jun-15 08:59N 43°33' E 010°18'0 0.0
2017-Jun-15 08:27N 43°33' E 010°18'0 0.0
2017-Jun-15 08:00N 43°33' E 010°18'0 0.0
2017-Jun-15 07:30N 43°33' E 010°18'0 0.0
2017-Jun-15 06:52N 43°33' E 010°18'0 0.0
2017-Jun-15 06:28N 43°33' E 010°18'0 0.0
2017-Jun-15 05:58N 43°33' E 010°18'0 0.0
2017-Jun-15 05:29N 43°33' E 010°18'0 0.0
2017-Jun-15 04:59N 43°33' E 010°18'0 0.7
2017-Jun-15 04:30N 43°33' E 010°17'3 6.6
2017-Jun-15 04:00N 43°30' E 010°15'510.8
2017-Jun-15 03:30N 43°25' E 010°12'612.3
2017-Jun-15 03:00N 43°20' E 010°09'613.0
2017-Jun-15 02:30N 43°13' E 010°07'613.0
2017-Jun-15 02:00N 43°07' E 010°05'713.4
2017-Jun-15 01:31N 43°00' E 010°03'816.4
2017-Jun-15 01:00N 42°52' E 009°60'916.7
2017-Jun-15 00:29N 42°44' E 009°57'816.7
2017-Jun-15 00:00N 42°36' E 009°54'816.4
2017-Jun-14 23:30N 42°28' E 009°52'816.2
2017-Jun-14 23:00N 42°20' E 009°53'815.5
2017-Jun-14 22:30N 42°15' E 010°01'816.6
2017-Jun-14 22:00N 42°12' E 010°11'816.2
2017-Jun-14 21:29N 42°09' E 010°22'816.2
2017-Jun-14 21:00N 42°07' E 010°32'816.0
2017-Jun-14 20:31N 42°04' E 010°42'917.5
2017-Jun-14 20:00N 42°01' E 010°53'917.4
2017-Jun-14 19:31N 41°58' E 011°04'816.7
2017-Jun-14 19:01N 41°59' E 011°15'817.0
2017-Jun-14 18:31N 42°02' E 011°26'917.1
2017-Jun-14 17:59N 42°05' E 011°37'713.9
2017-Jun-14 17:30N 42°06' E 011°46'1 1.1
2017-Jun-14 16:55N 42°06' E 011°47'0 0.0
2017-Jun-14 15:53N 42°06' E 011°47'0 0.0
2017-Jun-14 15:26N 42°06' E 011°47'0 0.0
2017-Jun-14 14:53N 42°06' E 011°47'0 0.0
2017-Jun-14 12:22N 42°06' E 011°47'0 0.0
2017-Jun-14 11:52N 42°06' E 011°47'0 0.0
2017-Jun-14 07:49N 42°06' E 011°47'0 0.0
2017-Jun-14 07:19N 42°06' E 011°47'0 0.0
2017-Jun-14 06:08N 42°06' E 011°47'0 0.0
2017-Jun-14 05:18N 42°06' E 011°47'0 0.0
2017-Jun-14 04:57N 42°06' E 011°47'0 0.0
2017-Jun-14 04:21N 42°06' E 011°47'0 0.0
2017-Jun-14 03:54N 42°06' E 011°47'0 0.3
2017-Jun-14 03:27N 42°06' E 011°47'2 4.9
2017-Jun-14 03:00N 42°06' E 011°44'4 8.7
2017-Jun-14 02:30N 42°02' E 011°42'815.8
2017-Jun-14 02:00N 41°54' E 011°47'917.0
2017-Jun-14 01:30N 41°47' E 011°53'917.8
2017-Jun-14 01:00N 41°40' E 011°59'917.2
2017-Jun-14 00:30N 41°33' E 012°05'917.5
2017-Jun-14 00:01N 41°25' E 012°12'917.6
2017-Jun-13 23:31N 41°18' E 012°18'918.0
2017-Jun-13 23:01N 41°10' E 012°24'1019.7
2017-Jun-13 22:30N 41°02' E 012°31'1219.7
2017-Jun-13 21:55N 40°53' E 012°42'819.2
2017-Jun-13 21:29N 40°49' E 012°50'919.5
2017-Jun-13 21:00N 40°45' E 013°02'919.2
2017-Jun-13 20:31N 40°43' E 013°14'919.0
2017-Jun-13 20:01N 40°40' E 013°26'1019.0
2017-Jun-13 19:30N 40°39' E 013°39'918.8
2017-Jun-13 19:00N 40°38' E 013°51'817.0
2017-Jun-13 18:31N 40°39' E 014°02'816.9
2017-Jun-13 18:00N 40°44' E 014°11'714.2
2017-Jun-13 17:30N 40°49' E 014°17'1 2.4
2017-Jun-13 17:01N 40°50' E 014°16'0 0.0
2017-Jun-13 16:28N 40°50' E 014°16'0 0.0
2017-Jun-13 15:58N 40°50' E 014°16'0 0.0
2017-Jun-13 15:28N 40°50' E 014°16'0 0.0
2017-Jun-13 14:59N 40°50' E 014°16'0 0.0
2017-Jun-13 13:59N 40°50' E 014°16'0 0.0
2017-Jun-13 13:30N 40°50' E 014°16'0 0.0
2017-Jun-13 13:00N 40°50' E 014°16'0 0.0
2017-Jun-13 12:30N 40°50' E 014°16'0 0.0
2017-Jun-13 11:13N 40°50' E 014°16'0 0.0
2017-Jun-13 10:50N 40°50' E 014°16'0 0.0
2017-Jun-13 10:23N 40°50' E 014°16'0 0.0
2017-Jun-13 09:56N 40°50' E 014°16'0 0.0
2017-Jun-13 09:29N 40°50' E 014°16'0 0.0
2017-Jun-13 09:00N 40°50' E 014°16'0 0.0
2017-Jun-13 06:40N 40°50' E 014°16'0 0.0
2017-Jun-13 06:20N 40°50' E 014°16'0 0.0
2017-Jun-13 05:59N 40°50' E 014°16'0 0.0
2017-Jun-13 05:29N 40°50' E 014°16'0 0.0
2017-Jun-13 04:59N 40°50' E 014°16'0 0.3
2017-Jun-13 04:31N 40°50' E 014°16'3 5.2
2017-Jun-13 04:00N 40°48' E 014°17'4 7.9
2017-Jun-13 03:30N 40°45' E 014°13'611.4
2017-Jun-13 03:00N 40°41' E 014°08'612.7
2017-Jun-13 02:30N 40°37' E 014°01'612.9
2017-Jun-13 02:00N 40°33' E 013°55'713.2
2017-Jun-13 01:30N 40°29' E 013°47'612.6
2017-Jun-13 01:00N 40°28' E 013°39'713.3
2017-Jun-13 00:30N 40°30' E 013°31'713.3
2017-Jun-13 00:00N 40°31' E 013°23'713.2
2017-Jun-12 23:30N 40°33' E 013°14'713.2
2017-Jun-12 23:00N 40°35' E 013°06'713.1
2017-Jun-12 22:30N 40°37' E 012°58'713.3
2017-Jun-12 22:00N 40°38' E 012°49'713.9
2017-Jun-12 21:30N 40°40' E 012°40'816.2
2017-Jun-12 21:00N 40°42' E 012°30'816.1
2017-Jun-12 20:30N 40°45' E 012°20'815.9
2017-Jun-12 19:59N 40°47' E 012°09'816.1
2017-Jun-12 19:30N 40°50' E 011°60'816.5
2017-Jun-12 19:00N 40°52' E 011°49'816.2
2017-Jun-12 18:29N 40°54' E 011°38'816.0
2017-Jun-12 17:59N 40°56' E 011°28'915.8
2017-Jun-12 17:26N 40°59' E 011°17'816.1
2017-Jun-12 16:57N 41°01' E 011°07'816.3
2017-Jun-12 16:29N 41°03' E 010°58'  
Track history (hours):
 
Tides and Currents Weather Stations Pressure Air Temp Water Temp Dewpoint Dewpoint Depression Visibility Wind Speed Wind Dir Waves Ship Positions

Norwegian Epic

Last reported at 2017-Jun-22 16:27 UTC. Time now 2017-Jun-22 16:38 UTC.
Position N 43°33' E 010°18'.

Length 329 m; draft 8.8 m.

Type: Passenger vessel. MMSI: 311018500.

Date/timePositionNaut miles runAvg speedWind from/ knotsBaromVisibWave heightAir tempDewpointWater temp
2017-Jun-22 16:27N 43°33' E 010°18'0 0.0
2017-Jun-22 16:00N 43°33' E 010°18'0 0.0
2017-Jun-22 15:30N 43°33' E 010°18'0 0.0
2017-Jun-22 15:00N 43°33' E 010°18'0 0.0
2017-Jun-22 13:58N 43°33' E 010°18'0 0.0
2017-Jun-22 13:29N 43°33' E 010°18'0 0.0
2017-Jun-22 12:59N 43°33' E 010°18'0 0.0
2017-Jun-22 12:29N 43°33' E 010°18'0 0.0
2017-Jun-22 11:59N 43°33' E 010°18'0 0.0
2017-Jun-22 11:30N 43°33' E 010°18'0 0.0
2017-Jun-22 11:00N 43°33' E 010°18'0 0.0
2017-Jun-22 10:30N 43°33' E 010°18'0 0.0
2017-Jun-22 09:55N 43°33' E 010°18'0 0.0
2017-Jun-22 09:28N 43°33' E 010°18'0 0.0
2017-Jun-22 08:53N 43°33' E 010°18'0 0.0
2017-Jun-22 08:29N 43°33' E 010°18'0 0.0
2017-Jun-22 07:56N 43°33' E 010°18'0 0.0
2017-Jun-22 07:29N 43°33' E 010°18'0 0.0
2017-Jun-22 07:00N 43°33' E 010°18'0 0.0
2017-Jun-22 06:30N 43°33' E 010°18'0 0.0
2017-Jun-22 06:00N 43°33' E 010°18'0 0.0
2017-Jun-22 05:28N 43°33' E 010°18'0 0.0
2017-Jun-22 04:58N 43°33' E 010°18'0 0.7
2017-Jun-22 04:31N 43°33' E 010°18'4 7.8
2017-Jun-22 04:01N 43°30' E 010°14'611.3
2017-Jun-22 03:30N 43°25' E 010°11'612.2
2017-Jun-22 03:01N 43°19' E 010°09'612.9
2017-Jun-22 02:31N 43°13' E 010°07'613.0
2017-Jun-22 02:01N 43°06' E 010°05'713.2
2017-Jun-22 01:31N 42°60' E 010°02'816.0
2017-Jun-22 01:00N 42°52' E 009°59'917.5
2017-Jun-22 00:30N 42°44' E 009°56'917.1
2017-Jun-22 00:00N 42°36' E 009°53'917.3
2017-Jun-21 23:30N 42°27' E 009°55'917.3
2017-Jun-21 23:00N 42°18' E 009°56'917.1
2017-Jun-21 22:30N 42°14' E 010°06'1517.4
2017-Jun-21 21:40N 42°08' E 010°24'317.2
2017-Jun-21 21:30N 42°07' E 010°28'917.1
2017-Jun-21 21:00N 42°05' E 010°39'816.9
2017-Jun-21 20:31N 42°02' E 010°49'916.7
2017-Jun-21 20:00N 41°59' E 011°00'816.6
2017-Jun-21 19:30N 41°58' E 011°11'917.1
2017-Jun-21 19:00N 42°01' E 011°22'816.9
2017-Jun-21 18:30N 42°04' E 011°33'80 4.0
2017-Jun-20 22:17N 40°58' E 012°34'1519.5
2017-Jun-20 21:32N 40°49' E 012°50'119.7
2017-Jun-20 21:29N 40°48' E 012°51'919.2
2017-Jun-20 21:00N 40°45' E 013°02'918.9
2017-Jun-20 20:30N 40°43' E 013°14'918.9
2017-Jun-20 20:00N 40°41' E 013°26'1018.8
2017-Jun-20 19:30N 40°39' E 013°39'917.4
2017-Jun-20 19:01N 40°39' E 013°50'816.6
2017-Jun-20 18:31N 40°39' E 014°01'816.0
2017-Jun-20 18:00N 40°43' E 014°10'713.8
2017-Jun-20 17:30N 40°48' E 014°16'3 2.6
2017-Jun-20 16:31N 40°50' E 014°16'0 0.0
2017-Jun-20 16:22N 40°50' E 014°16'0 0.0
2017-Jun-20 15:59N 40°50' E 014°16'0 0.0
2017-Jun-20 15:29N 40°50' E 014°16'0 0.0
2017-Jun-20 14:59N 40°50' E 014°16'0 0.0
2017-Jun-20 14:30N 40°50' E 014°16'0 0.0
2017-Jun-20 13:30N 40°50' E 014°16'0 0.0
2017-Jun-20 12:58N 40°50' E 014°16'0 0.0
2017-Jun-20 10:18N 40°50' E 014°16'0 0.0
2017-Jun-20 10:00N 40°50' E 014°16'0 0.0
2017-Jun-20 09:30N 40°50' E 014°16'0 0.0
2017-Jun-20 09:00N 40°50' E 014°16'0 0.0
2017-Jun-20 08:28N 40°50' E 014°16'0 0.0
2017-Jun-20 06:14N 40°50' E 014°16'0 0.0
2017-Jun-20 05:59N 40°50' E 014°16'0 0.0
2017-Jun-20 05:15N 40°50' E 014°16'0 0.0
2017-Jun-20 05:00N 40°50' E 014°16'9 5.3
2017-Jun-20 03:19N 40°43' E 014°10'412.5
2017-Jun-20 03:00N 40°40' E 014°06'2512.0
2017-Jun-20 00:55N 40°28' E 013°37'616.0
2017-Jun-20 00:30N 40°30' E 013°28'2716.2
2017-Jun-19 22:50N 40°38' E 012°54'3016.0
2017-Jun-19 20:59N 40°46' E 012°16'2616.1
2017-Jun-19 19:22N 40°53' E 011°43'616.2
2017-Jun-19 19:00N 40°55' E 011°36'816.1
2017-Jun-19 18:30N 40°57' E 011°26'7016.1
2017-Jun-19 14:09N 41°16' E 009°56'1015.6
2017-Jun-19 13:30N 41°19' E 009°43'816.0
2017-Jun-19 13:00N 41°21' E 009°33'9815.5
2017-Jun-19 06:40N 41°17' E 007°23'6517.0
2017-Jun-19 02:49N 41°17' E 005°55'2417.1
2017-Jun-19 01:24N 41°18' E 005°23'1216.9
2017-Jun-19 00:41N 41°17' E 005°07'317.0
2017-Jun-19 00:30N 41°16' E 005°03'3117.2
2017-Jun-18 22:42N 41°16' E 004°22'1617.1
2017-Jun-18 21:46N 41°16' E 004°01'416.9
2017-Jun-18 21:30N 41°16' E 003°55'817.0
2017-Jun-18 21:00N 41°16' E 003°43'917.1
2017-Jun-18 20:30N 41°16' E 003°32'916.9
2017-Jun-18 20:00N 41°16' E 003°21'816.5
2017-Jun-18 19:30N 41°16' E 003°10'816.2
2017-Jun-18 19:00N 41°16' E 002°59'816.2
2017-Jun-18 18:30N 41°16' E 002°48'816.3
2017-Jun-18 18:00N 41°16' E 002°37'816.3
2017-Jun-18 17:30N 41°15' E 002°26'816.3
2017-Jun-18 17:00N 41°15' E 002°16'612.6
2017-Jun-18 16:30N 41°19' E 002°10'2 1.4
2017-Jun-18 14:50N 41°22' E 002°11'0 0.0
2017-Jun-18 09:54N 41°22' E 002°11'0 0.0
2017-Jun-18 09:30N 41°22' E 002°11'0 0.0
2017-Jun-18 08:22N 41°22' E 002°11'0 0.0
2017-Jun-18 07:58N 41°22' E 002°11'0 0.0
2017-Jun-18 07:25N 41°22' E 002°11'0 0.0
2017-Jun-18 06:56N 41°22' E 002°11'0 0.0
2017-Jun-18 05:44N 41°22' E 002°11'0 0.0
2017-Jun-18 05:27N 41°22' E 002°11'0 0.0
2017-Jun-18 04:57N 41°22' E 002°11'0 0.0
2017-Jun-18 04:30N 41°22' E 002°11'0 0.0
2017-Jun-18 03:58N 41°22' E 002°11'0 0.0
2017-Jun-18 03:28N 41°22' E 002°11'0 0.0
2017-Jun-18 02:58N 41°22' E 002°11'1 1.3
2017-Jun-18 02:30N 41°21' E 002°10'3 7.0
2017-Jun-18 02:00N 41°18' E 002°11'816.0
2017-Jun-18 01:30N 41°10' E 002°11'917.1
2017-Jun-18 01:00N 41°01' E 002°11'917.3
2017-Jun-18 00:31N 40°53' E 002°12'917.4
2017-Jun-18 00:00N 40°44' E 002°12'917.7
2017-Jun-17 23:31N 40°35' E 002°12'917.5
2017-Jun-17 23:00N 40°26' E 002°12'917.7
2017-Jun-17 22:30N 40°17' E 002°11'816.8
2017-Jun-17 22:00N 40°09' E 002°12'917.1
2017-Jun-17 21:30N 40°00' E 002°12'917.4
2017-Jun-17 21:00N 39°52' E 002°12'917.2
2017-Jun-17 20:30N 39°43' E 002°12'817.1
2017-Jun-17 20:00N 39°35' E 002°13'816.8
2017-Jun-17 19:30N 39°29' E 002°21'816.7
2017-Jun-17 19:00N 39°24' E 002°30'815.7
2017-Jun-17 18:30N 39°30' E 002°37'4 7.6
2017-Jun-17 18:00N 39°33' E 002°38'0 0.0
2017-Jun-17 17:30N 39°33' E 002°38'0 0.0
2017-Jun-17 16:58N 39°33' E 002°38'0 0.0
2017-Jun-17 16:28N 39°33' E 002°38'0 0.0
2017-Jun-17 15:58N 39°33' E 002°38'0 0.0
2017-Jun-17 15:29N 39°33' E 002°38'0 0.0
2017-Jun-17 14:59N 39°33' E 002°38'0 0.0
2017-Jun-17 14:29N 39°33' E 002°38'0 0.0
2017-Jun-17 13:30N 39°33' E 002°38'0 0.0
2017-Jun-17 13:00N 39°33' E 002°38'0 0.0
2017-Jun-17 12:28N 39°33' E 002°38'0 0.0
2017-Jun-17 11:58N 39°33' E 002°38'0 0.0
2017-Jun-17 11:28N 39°33' E 002°38'0 0.0
2017-Jun-17 10:59N 39°33' E 002°38'0 0.1
2017-Jun-17 10:30N 39°33' E 002°38'2 3.5
2017-Jun-17 10:00N 39°32' E 002°38'612.6
2017-Jun-17 09:30N 39°26' E 002°34'815.4
2017-Jun-17 09:00N 39°26' E 002°24'917.7
2017-Jun-17 08:30N 39°32' E 002°15'917.5
2017-Jun-17 08:00N 39°40' E 002°18'918.0
2017-Jun-17 07:30N 39°47' E 002°26'917.3
2017-Jun-17 07:00N 39°53' E 002°34'917.2
2017-Jun-17 06:30N 39°59' E 002°42'917.2
2017-Jun-17 06:00N 40°05' E 002°50'917.3
2017-Jun-17 05:30N 40°12' E 002°58'917.6
2017-Jun-17 05:00N 40°18' E 003°06'1019.5
2017-Jun-17 04:30N 40°25' E 003°15'1020.0
2017-Jun-17 04:00N 40°32' E 003°24'1020.2
2017-Jun-17 03:29N 40°39' E 003°34'13221.4
2017-Jun-16 21:20N 42°16' E 005°34'721.4
2017-Jun-16 21:00N 42°19' E 005°42'1121.3
2017-Jun-16 20:30N 42°26' E 005°54'1121.7
2017-Jun-16 20:00N 42°33' E 006°04'1121.7
2017-Jun-16 19:30N 42°41' E 006°14'1122.1
2017-Jun-16 19:00N 42°49' E 006°25'1122.0
2017-Jun-16 18:30N 42°57' E 006°35'1122.0
2017-Jun-16 18:00N 43°05' E 006°46'1121.4
2017-Jun-16 17:30N 43°14' E 006°53'1121.8
2017-Jun-16 17:00N 43°24' E 006°58'815.7
2017-Jun-16 16:30N 43°32' E 007°00'0 0.5
2017-Jun-16 16:00N 43°32' E 007°00'0 0.0
2017-Jun-16 15:30N 43°32' E 007°00'0 0.0
2017-Jun-16 14:58N 43°32' E 007°00'0 0.0
2017-Jun-16 14:25N 43°32' E 007°00'0 0.0
2017-Jun-16 13:26N 43°32' E 007°00'0 0.0
2017-Jun-16 12:20N 43°32' E 007°01'0 0.0
2017-Jun-16 12:00N 43°32' E 007°00'0 0.0
2017-Jun-16 11:27N 43°32' E 007°00'0 0.0
2017-Jun-16 10:57N 43°32' E 007°00'0 0.0
2017-Jun-16 10:28N 43°32' E 007°00'0 0.1
2017-Jun-16 10:00N 43°32' E 007°00'0 0.1
2017-Jun-16 09:28N 43°32' E 007°00'0 0.0
2017-Jun-16 08:59N 43°32' E 007°00'0 0.0
2017-Jun-16 08:20N 43°32' E 007°00'0 0.2
2017-Jun-16 08:00N 43°32' E 007°00'0 0.3
2017-Jun-16 07:30N 43°32' E 007°00'0 0.1
2017-Jun-16 07:00N 43°32' E 007°01'0 0.2
2017-Jun-16 06:29N 43°32' E 007°01'0 0.4
2017-Jun-16 05:56N 43°32' E 007°01'0 0.2
2017-Jun-16 05:28N 43°32' E 007°01'0 0.1
2017-Jun-16 04:56N 43°32' E 007°00'1 2.6
2017-Jun-16 04:30N 43°31' E 007°00'4 8.9
2017-Jun-16 04:00N 43°28' E 007°05'612.9
2017-Jun-16 03:30N 43°28' E 007°14'613.0
2017-Jun-16 03:00N 43°28' E 007°23'713.1
2017-Jun-16 02:30N 43°28' E 007°32'713.1
2017-Jun-16 02:00N 43°29' E 007°41'713.1
2017-Jun-16 01:30N 43°29' E 007°50'815.5
2017-Jun-16 01:00N 43°29' E 008°01'816.1
2017-Jun-16 00:30N 43°29' E 008°12'816.1
2017-Jun-16 00:00N 43°29' E 008°23'815.8
2017-Jun-15 23:30N 43°29' E 008°34'816.2
2017-Jun-15 23:00N 43°30' E 008°45'713.3
2017-Jun-15 22:30N 43°30' E 008°54'612.7
2017-Jun-15 22:00N 43°31' E 009°03'612.5
2017-Jun-15 21:30N 43°31' E 009°11'612.3
2017-Jun-15 21:00N 43°32' E 009°20'612.4
2017-Jun-15 20:30N 43°31' E 009°28'612.5
2017-Jun-15 20:00N 43°31' E 009°37'612.3
2017-Jun-15 19:30N 43°31' E 009°45'612.2
2017-Jun-15 19:00N 43°32' E 009°54'611.8
2017-Jun-15 18:30N 43°31' E 010°02'611.6
2017-Jun-15 18:00N 43°31' E 010°10'611.0
2017-Jun-15 17:30N 43°32' E 010°17'1 1.9
2017-Jun-15 17:00N 43°33' E 010°18'0 0.0
2017-Jun-15 16:30N 43°33' E 010°18'0 0.0
2017-Jun-15 15:58N 43°33' E 010°18'0 0.0
2017-Jun-15 15:28N 43°33' E 010°18'0 0.0
2017-Jun-15 14:58N 43°33' E 010°18'0 0.0
2017-Jun-15 13:56N 43°33' E 010°18'0 0.0
2017-Jun-15 13:29N 43°33' E 010°18'0 0.0
2017-Jun-15 12:54N 43°33' E 010°18'0 0.0
2017-Jun-15 12:30N 43°33' E 010°18'0 0.0
2017-Jun-15 12:00N 43°33' E 010°18'0 0.0
2017-Jun-15 11:28N 43°33' E 010°18'0 0.0
2017-Jun-15 10:58N 43°33' E 010°18'0 0.0
2017-Jun-15 10:28N 43°33' E 010°18'0 0.0
2017-Jun-15 09:59N 43°33' E 010°18'0 0.0
2017-Jun-15 09:29N 43°33' E 010°18'0 0.0
2017-Jun-15 08:59N 43°33' E 010°18'0 0.0
2017-Jun-15 08:27N 43°33' E 010°18'0 0.0
2017-Jun-15 08:00N 43°33' E 010°18'0 0.0
2017-Jun-15 07:30N 43°33' E 010°18'0 0.0
2017-Jun-15 06:52N 43°33' E 010°18'0 0.0
2017-Jun-15 06:28N 43°33' E 010°18'0 0.0
2017-Jun-15 05:58N 43°33' E 010°18'0 0.0
2017-Jun-15 05:29N 43°33' E 010°18'0 0.0
2017-Jun-15 04:59N 43°33' E 010°18'0 0.7
2017-Jun-15 04:30N 43°33' E 010°17'3 6.6
2017-Jun-15 04:00N 43°30' E 010°15'510.8
2017-Jun-15 03:30N 43°25' E 010°12'612.3
2017-Jun-15 03:00N 43°20' E 010°09'613.0
2017-Jun-15 02:30N 43°13' E 010°07'613.0
2017-Jun-15 02:00N 43°07' E 010°05'713.4
2017-Jun-15 01:31N 43°00' E 010°03'816.4
2017-Jun-15 01:00N 42°52' E 009°60'916.7
2017-Jun-15 00:29N 42°44' E 009°57'816.7
2017-Jun-15 00:00N 42°36' E 009°54'816.4
2017-Jun-14 23:30N 42°28' E 009°52'816.2
2017-Jun-14 23:00N 42°20' E 009°53'815.5
2017-Jun-14 22:30N 42°15' E 010°01'816.6
2017-Jun-14 22:00N 42°12' E 010°11'816.2
2017-Jun-14 21:29N 42°09' E 010°22'816.2
2017-Jun-14 21:00N 42°07' E 010°32'816.0
2017-Jun-14 20:31N 42°04' E 010°42'917.5
2017-Jun-14 20:00N 42°01' E 010°53'917.4
2017-Jun-14 19:31N 41°58' E 011°04'816.7
2017-Jun-14 19:01N 41°59' E 011°15'817.0
2017-Jun-14 18:31N 42°02' E 011°26'917.1
2017-Jun-14 17:59N 42°05' E 011°37'713.9
2017-Jun-14 17:30N 42°06' E 011°46'1 1.1
2017-Jun-14 16:55N 42°06' E 011°47'0 0.0
2017-Jun-14 15:53N 42°06' E 011°47'0 0.0
2017-Jun-14 15:26N 42°06' E 011°47'0 0.0
2017-Jun-14 14:53N 42°06' E 011°47'0 0.0
2017-Jun-14 12:22N 42°06' E 011°47'0 0.0
2017-Jun-14 11:52N 42°06' E 011°47'0 0.0
2017-Jun-14 07:49N 42°06' E 011°47'0 0.0
2017-Jun-14 07:19N 42°06' E 011°47'0 0.0
2017-Jun-14 06:08N 42°06' E 011°47'0 0.0
2017-Jun-14 05:18N 42°06' E 011°47'0 0.0
2017-Jun-14 04:57N 42°06' E 011°47'0 0.0
2017-Jun-14 04:21N 42°06' E 011°47'0 0.0
2017-Jun-14 03:54N 42°06' E 011°47'0 0.3
2017-Jun-14 03:27N 42°06' E 011°47'2 4.9
2017-Jun-14 03:00N 42°06' E 011°44'4 8.7
2017-Jun-14 02:30N 42°02' E 011°42'815.8
2017-Jun-14 02:00N 41°54' E 011°47'917.0
2017-Jun-14 01:30N 41°47' E 011°53'917.8
2017-Jun-14 01:00N 41°40' E 011°59'917.2
2017-Jun-14 00:30N 41°33' E 012°05'917.5
2017-Jun-14 00:01N 41°25' E 012°12'917.6
2017-Jun-13 23:31N 41°18' E 012°18'918.0
2017-Jun-13 23:01N 41°10' E 012°24'1019.7
2017-Jun-13 22:30N 41°02' E 012°31'1219.7
2017-Jun-13 21:55N 40°53' E 012°42'819.2
2017-Jun-13 21:29N 40°49' E 012°50'919.5
2017-Jun-13 21:00N 40°45' E 013°02'919.2
2017-Jun-13 20:31N 40°43' E 013°14'919.0
2017-Jun-13 20:01N 40°40' E 013°26'1019.0
2017-Jun-13 19:30N 40°39' E 013°39'918.8
2017-Jun-13 19:00N 40°38' E 013°51'817.0
2017-Jun-13 18:31N 40°39' E 014°02'816.9
2017-Jun-13 18:00N 40°44' E 014°11'714.2
2017-Jun-13 17:30N 40°49' E 014°17'1 2.4
2017-Jun-13 17:01N 40°50' E 014°16'0 0.0
2017-Jun-13 16:28N 40°50' E 014°16'0 0.0
2017-Jun-13 15:58N 40°50' E 014°16'0 0.0
2017-Jun-13 15:28N 40°50' E 014°16'0 0.0
2017-Jun-13 14:59N 40°50' E 014°16'0 0.0
2017-Jun-13 13:59N 40°50' E 014°16'0 0.0
2017-Jun-13 13:30N 40°50' E 014°16'0 0.0
2017-Jun-13 13:00N 40°50' E 014°16'0 0.0
2017-Jun-13 12:30N 40°50' E 014°16'0 0.0
2017-Jun-13 11:13N 40°50' E 014°16'0 0.0
2017-Jun-13 10:50N 40°50' E 014°16'0 0.0
2017-Jun-13 10:23N 40°50' E 014°16'0 0.0
2017-Jun-13 09:56N 40°50' E 014°16'0 0.0
2017-Jun-13 09:29N 40°50' E 014°16'0 0.0
2017-Jun-13 09:00N 40°50' E 014°16'0 0.0
2017-Jun-13 06:40N 40°50' E 014°16'0 0.0
2017-Jun-13 06:20N 40°50' E 014°16'0 0.0
2017-Jun-13 05:59N 40°50' E 014°16'0 0.0
2017-Jun-13 05:29N 40°50' E 014°16'0 0.0
2017-Jun-13 04:59N 40°50' E 014°16'0 0.3
2017-Jun-13 04:31N 40°50' E 014°16'3 5.2
2017-Jun-13 04:00N 40°48' E 014°17'4 7.9
2017-Jun-13 03:30N 40°45' E 014°13'611.4
2017-Jun-13 03:00N 40°41' E 014°08'612.7
2017-Jun-13 02:30N 40°37' E 014°01'612.9
2017-Jun-13 02:00N 40°33' E 013°55'713.2
2017-Jun-13 01:30N 40°29' E 013°47'612.6
2017-Jun-13 01:00N 40°28' E 013°39'713.3
2017-Jun-13 00:30N 40°30' E 013°31'713.3
2017-Jun-13 00:00N 40°31' E 013°23'713.2
2017-Jun-12 23:30N 40°33' E 013°14'713.2
2017-Jun-12 23:00N 40°35' E 013°06'713.1
2017-Jun-12 22:30N 40°37' E 012°58'713.3
2017-Jun-12 22:00N 40°38' E 012°49'713.9
2017-Jun-12 21:30N 40°40' E 012°40'816.2
2017-Jun-12 21:00N 40°42' E 012°30'816.1
2017-Jun-12 20:30N 40°45' E 012°20'815.9
2017-Jun-12 19:59N 40°47' E 012°09'816.1
2017-Jun-12 19:30N 40°50' E 011°60'816.5
2017-Jun-12 19:00N 40°52' E 011°49'816.2
2017-Jun-12 18:29N 40°54' E 011°38'816.0
2017-Jun-12 17:59N 40°56' E 011°28'915.8
2017-Jun-12 17:26N 40°59' E 011°17'816.1
2017-Jun-12 16:57N 41°01' E 011°07'816.3
2017-Jun-12 16:29N 41°03' E 010°58'  

Dump ship's entire track history